Conde Monte Cristo — CUDA6 — position and weather

sailwx.info

Track history (hours):
 
Tides and Currents Weather Stations Pressure Air Temp Water Temp Dewpoint Dewpoint Depression Visibility Wind Speed Wind Dir Waves Ship Positions

Conde Monte Cristo

Last reported at 2017-Aug-24 10:12 UTC. Time now 2017-Sep-25 01:08 UTC.
Position N 39°59' W 009°03'.
Warning: this ship's position is 31 days out of date.

Length 14 m.

Type: Fishing. MMSI: 263429640.

Date/timePositionNaut miles runAvg speedWind from/ knotsBaromVisibWave heightAir tempDewpointWater temp
2017-Aug-24 10:12N 39°59' W 009°03'4 2.4
2017-Aug-24 08:33N 39°56' W 009°07'1 0.6
2017-Aug-24 06:20N 39°57' W 009°06'15 0.9
2017-Aug-23 13:30N 40°09' W 008°52'6 8.6
2017-Aug-23 12:47N 40°04' W 008°58'2 8.3
2017-Aug-23 12:30N 40°02' W 008°60'4 8.2
2017-Aug-23 12:00N 39°59' W 009°03'5 7.1
2017-Aug-23 11:21N 39°56' W 009°07'2 4.4
2017-Aug-23 10:51N 39°57' W 009°05'1 1.4
2017-Aug-23 09:59N 39°57' W 009°06'1 0.3
2017-Aug-23 06:50N 39°57' W 009°06'1 0.1
2017-Aug-22 23:49N 39°56' W 009°05'1 1.8
2017-Aug-22 23:30N 39°57' W 009°05'5 0.4
2017-Aug-22 11:01N 40°00' W 008°60'0 8.8
2017-Aug-22 10:59N 39°60' W 008°60'5 8.7
2017-Aug-22 10:26N 39°56' W 009°03'6 8.4
2017-Aug-22 09:44N 39°51' W 009°08'2 7.3
2017-Aug-22 09:30N 39°50' W 009°09'0 0.1
2017-Aug-22 08:34N 39°50' W 009°09'0 0.5
2017-Aug-22 08:19N 39°50' W 009°09'0 0.6
2017-Aug-22 07:57N 39°49' W 009°09'0 0.1
2017-Aug-22 06:50N 39°50' W 009°09'0 0.6
2017-Aug-22 06:30N 39°49' W 009°09'0 0.5
2017-Aug-22 05:48N 39°50' W 009°09'0 0.1
2017-Aug-22 05:27N 39°50' W 009°09'0 0.1
2017-Aug-22 04:57N 39°50' W 009°09'0 0.0
2017-Aug-21 02:59N 39°50' W 009°09'2 1.4
2017-Aug-21 01:29N 39°52' W 009°08'4 8.5
2017-Aug-21 01:00N 39°56' W 009°06'1 2.2
2017-Aug-21 00:30N 39°56' W 009°05'1 1.6
2017-Aug-20 23:59N 39°57' W 009°06'  
2017-Aug-16 19:08N 39°56' W 008°59'5 4.0
2017-Aug-16 17:56N 39°57' W 009°06'1 1.9
2017-Aug-16 17:24N 39°56' W 009°07'1 1.2
2017-Aug-16 16:56N 39°57' W 009°07'  
Track history (hours):
 
Tides and Currents Weather Stations Pressure Air Temp Water Temp Dewpoint Dewpoint Depression Visibility Wind Speed Wind Dir Waves Ship Positions

Conde Monte Cristo

Last reported at 2017-Aug-24 10:12 UTC. Time now 2017-Sep-25 01:08 UTC.
Position N 39°59' W 009°03'.
Warning: this ship's position is 31 days out of date.

Length 14 m.

Type: Fishing. MMSI: 263429640.

Date/timePositionNaut miles runAvg speedWind from/ knotsBaromVisibWave heightAir tempDewpointWater temp
2017-Aug-24 10:12N 39°59' W 009°03'4 2.4
2017-Aug-24 08:33N 39°56' W 009°07'1 0.6
2017-Aug-24 06:20N 39°57' W 009°06'15 0.9
2017-Aug-23 13:30N 40°09' W 008°52'6 8.6
2017-Aug-23 12:47N 40°04' W 008°58'2 8.3
2017-Aug-23 12:30N 40°02' W 008°60'4 8.2
2017-Aug-23 12:00N 39°59' W 009°03'5 7.1
2017-Aug-23 11:21N 39°56' W 009°07'2 4.4
2017-Aug-23 10:51N 39°57' W 009°05'1 1.4
2017-Aug-23 09:59N 39°57' W 009°06'1 0.3
2017-Aug-23 06:50N 39°57' W 009°06'1 0.1
2017-Aug-22 23:49N 39°56' W 009°05'1 1.8
2017-Aug-22 23:30N 39°57' W 009°05'5 0.4
2017-Aug-22 11:01N 40°00' W 008°60'0 8.8
2017-Aug-22 10:59N 39°60' W 008°60'5 8.7
2017-Aug-22 10:26N 39°56' W 009°03'6 8.4
2017-Aug-22 09:44N 39°51' W 009°08'2 7.3
2017-Aug-22 09:30N 39°50' W 009°09'0 0.1
2017-Aug-22 08:34N 39°50' W 009°09'0 0.5
2017-Aug-22 08:19N 39°50' W 009°09'0 0.6
2017-Aug-22 07:57N 39°49' W 009°09'0 0.1
2017-Aug-22 06:50N 39°50' W 009°09'0 0.6
2017-Aug-22 06:30N 39°49' W 009°09'0 0.5
2017-Aug-22 05:48N 39°50' W 009°09'0 0.1
2017-Aug-22 05:27N 39°50' W 009°09'0 0.1
2017-Aug-22 04:57N 39°50' W 009°09'0 0.0
2017-Aug-21 02:59N 39°50' W 009°09'2 1.4
2017-Aug-21 01:29N 39°52' W 009°08'4 8.5
2017-Aug-21 01:00N 39°56' W 009°06'1 2.2
2017-Aug-21 00:30N 39°56' W 009°05'1 1.6
2017-Aug-20 23:59N 39°57' W 009°06'  
2017-Aug-16 19:08N 39°56' W 008°59'5 4.0
2017-Aug-16 17:56N 39°57' W 009°06'1 1.9
2017-Aug-16 17:24N 39°56' W 009°07'1 1.2
2017-Aug-16 16:56N 39°57' W 009°07'  

Dump ship's entire track history